Time;durP1;ratioP1;P1;durP2;ratioP2;P2;SDS_P1;SDS_P2;PMS_P1;PMS_P2;Temp;Humidity;BMP_temperature;BMP_pressure;BME280_temperature;BME280_humidity;BME280_pressure;Samples;Min_cycle;Max_cycle;Signal;HPM_P1;HPM_P2
2022/03/16 00:01:04;;;;;;;15.63;14.13;;;13.90;90.60;;;;;;5119309;28;20180;-45
2022/03/16 00:03:30;;;;;;;15.90;14.30;;;13.50;90.30;;;;;;5119010;28;20180;-45
2022/03/16 00:05:56;;;;;;;17.73;16.03;;;13.10;90.60;;;;;;5117549;28;20176;-45
2022/03/16 00:08:21;;;;;;;17.60;15.80;;;12.80;91.10;;;;;;5118897;28;20173;-45
2022/03/16 00:10:47;;;;;;;17.53;15.93;;;12.50;91.60;;;;;;5117231;28;20204;-44
2022/03/16 00:13:12;;;;;;;18.00;16.40;;;12.20;92.20;;;;;;5119362;28;20570;-44
2022/03/16 00:15:38;;;;;;;19.20;17.20;;;12.00;92.70;;;;;;5118459;28;20180;-44
2022/03/16 00:18:04;;;;;;;17.70;15.80;;;11.70;93.10;;;;;;5119449;28;20230;-44
2022/03/16 00:20:29;;;;;;;16.90;15.30;;;11.60;93.60;;;;;;5119120;28;20455;-45
2022/03/16 00:22:55;;;;;;;15.57;13.97;;;11.40;93.80;;;;;;5116057;28;20186;-44
2022/03/16 00:25:20;;;;;;;16.10;14.40;;;11.30;94.10;;;;;;5116356;28;20203;-45
2022/03/16 00:27:46;;;;;;;15.53;13.80;;;11.20;94.30;;;;;;5115140;28;20180;-45
2022/03/16 00:30:12;;;;;;;17.03;15.33;;;11.10;94.50;;;;;;5116519;28;20175;-45
2022/03/16 00:32:38;;;;;;;16.37;14.70;;;11.00;94.60;;;;;;5115345;28;20508;-46
2022/03/16 00:35:05;;;;;;;15.77;14.17;;;10.90;94.80;;;;;;5098924;28;20199;-45
2022/03/16 00:37:32;;;;;;;17.20;15.40;;;10.80;95.00;;;;;;5115687;28;20464;-44
2022/03/16 00:39:58;;;;;;;16.17;14.47;;;10.70;95.10;;;;;;5118865;28;20506;-44
2022/03/16 00:42:24;;;;;;;16.60;14.87;;;10.60;95.30;;;;;;5118127;28;20851;-44
2022/03/16 00:44:49;;;;;;;18.57;14.83;;;10.60;95.40;;;;;;5119312;28;20473;-45
2022/03/16 00:47:15;;;;;;;19.03;15.60;;;10.50;95.50;;;;;;5119194;28;20202;-45
2022/03/16 00:49:41;;;;;;;17.30;14.57;;;10.50;95.60;;;;;;5118184;28;20180;-45
2022/03/16 00:52:07;;;;;;;19.17;17.27;;;10.50;95.70;;;;;;5118995;28;20449;-44
2022/03/16 00:54:33;;;;;;;17.70;15.90;;;10.50;95.70;;;;;;5119143;28;20292;-45
2022/03/16 00:56:59;;;;;;;16.33;14.63;;;10.40;95.70;;;;;;5117388;28;20418;-44
2022/03/16 00:59:24;;;;;;;17.80;15.50;;;10.40;95.70;;;;;;5119513;28;20180;-44
2022/03/16 01:01:50;;;;;;;16.90;15.10;;;10.40;95.80;;;;;;5117956;28;20183;-45
2022/03/16 01:04:16;;;;;;;17.97;16.20;;;10.40;95.90;;;;;;5118993;28;20220;-44
2022/03/16 01:06:41;;;;;;;19.30;16.23;;;10.40;95.90;;;;;;5101450;28;20241;-44
2022/03/16 01:09:07;;;;;;;17.87;16.00;;;10.40;95.90;;;;;;5118987;28;20564;-45
2022/03/16 01:11:32;;;;;;;19.17;16.90;;;10.30;95.90;;;;;;5118372;28;20442;-45
2022/03/16 01:13:59;;;;;;;16.27;14.57;;;10.30;95.90;;;;;;5118778;28;20215;-44
2022/03/16 01:16:24;;;;;;;17.00;14.97;;;10.30;96.00;;;;;;5117919;28;20172;-45
2022/03/16 01:18:50;;;;;;;23.50;17.53;;;10.30;96.00;;;;;;5119257;28;20538;-44
2022/03/16 01:21:15;;;;;;;18.03;14.87;;;10.20;96.00;;;;;;5117345;28;20179;-43
2022/03/16 01:23:42;;;;;;;19.57;14.90;;;10.20;96.00;;;;;;5118323;28;20212;-45
2022/03/16 01:26:07;;;;;;;17.93;14.80;;;10.20;96.40;;;;;;5118947;28;20233;-44
2022/03/16 01:28:33;;;;;;;17.50;14.87;;;10.20;96.10;;;;;;5116991;28;20762;-44
2022/03/16 01:31:01;;;;;;;19.30;14.60;;;10.10;96.00;;;;;;5117399;28;20559;-44
2022/03/16 01:33:27;;;;;;;17.50;15.67;;;10.10;96.00;;;;;;5117656;28;20707;-42
2022/03/16 01:35:53;;;;;;;19.20;14.20;;;10.10;96.00;;;;;;5116951;28;20563;-45
2022/03/16 01:38:18;;;;;;;19.60;15.43;;;10.10;96.10;;;;;;5119268;28;20889;-44
2022/03/16 01:40:44;;;;;;;18.70;15.13;;;10.10;96.10;;;;;;5116609;28;20200;-44
2022/03/16 01:43:09;;;;;;;17.70;14.73;;;10.10;96.10;;;;;;5118180;28;20470;-45
2022/03/16 01:45:36;;;;;;;18.57;15.40;;;10.10;96.20;;;;;;5118449;28;20479;-44
2022/03/16 01:48:01;;;;;;;22.07;16.93;;;10.10;96.20;;;;;;5117527;28;20222;-44
2022/03/16 01:50:27;;;;;;;21.23;16.97;;;10.10;96.30;;;;;;5118443;28;20411;-43
2022/03/16 01:52:52;;;;;;;25.93;16.77;;;10.10;96.30;;;;;;5098829;28;20200;-44
2022/03/16 01:55:18;;;;;;;20.53;16.67;;;10.00;96.30;;;;;;5117621;28;20236;-44
2022/03/16 01:57:47;;;;;;;22.73;18.13;;;10.10;96.50;;;;;;5099139;28;20179;-44
2022/03/16 02:00:13;;;;;;;25.37;19.13;;;10.00;96.50;;;;;;5117898;28;20264;-45
2022/03/16 02:02:39;;;;;;;22.93;20.03;;;10.00;96.60;;;;;;5117049;28;20433;-44
2022/03/16 02:05:05;;;;;;;24.03;20.00;;;10.00;96.70;;;;;;5099713;28;20476;-45
2022/03/16 02:07:31;;;;;;;24.10;20.17;;;10.00;96.70;;;;;;5116777;28;20283;-44
2022/03/16 02:10:00;;;;;;;28.07;21.97;;;10.00;96.80;;;;;;5118193;28;20491;-45
2022/03/16 02:12:25;;;;;;;23.87;20.43;;;10.00;97.00;;;;;;5116873;28;20183;-45
2022/03/16 02:14:51;;;;;;;26.73;22.50;;;9.90;97.70;;;;;;5117983;28;20414;-45
2022/03/16 02:17:50;;;;;;;28.73;22.77;;;9.90;97.70;;;;;;5081691;28;20244;-45
2022/03/16 02:20:16;;;;;;;24.70;19.90;;;9.90;97.70;;;;;;5118255;28;20196;-45
2022/03/16 02:23:00;;;;;;;26.00;20.07;;;9.90;97.80;;;;;;5116495;28;20417;-45
2022/03/16 02:25:27;;;;;;;24.07;20.43;;;9.90;97.70;;;;;;5117950;28;20472;-45
2022/03/16 02:27:53;;;;;;;23.63;19.53;;;9.90;97.80;;;;;;5117125;28;20482;-45
2022/03/16 02:30:26;;;;;;;25.53;21.83;;;9.90;97.80;;;;;;5118262;28;20496;-45
2022/03/16 02:32:52;;;;;;;28.03;23.40;;;9.80;97.70;;;;;;5098692;28;20438;-45
2022/03/16 02:35:17;;;;;;;25.07;22.23;;;9.80;97.80;;;;;;5117752;28;20417;-43
2022/03/16 02:37:43;;;;;;;27.43;23.60;;;9.80;97.80;;;;;;5116344;28;20507;-49
2022/03/16 02:40:11;;;;;;;28.80;25.00;;;9.80;97.80;;;;;;5117812;28;20562;-45
2022/03/16 02:42:38;;;;;;;30.30;24.73;;;9.70;97.90;;;;;;5116195;28;20198;-45
2022/03/16 02:45:05;;;;;;;31.70;26.13;;;9.70;97.90;;;;;;5118363;28;20552;-45
2022/03/16 02:47:31;;;;;;;33.93;26.93;;;9.70;98.00;;;;;;5120414;28;20532;-45
2022/03/16 02:49:57;;;;;;;32.07;25.90;;;9.70;98.00;;;;;;5121087;28;20513;-45
2022/03/16 02:52:22;;;;;;;32.70;26.17;;;9.70;98.10;;;;;;5120134;28;20222;-45
2022/03/16 02:54:49;;;;;;;32.00;27.37;;;9.70;98.20;;;;;;5120677;28;20224;-45
2022/03/16 02:57:16;;;;;;;30.80;25.93;;;9.70;98.30;;;;;;5119876;28;20207;-45
2022/03/16 02:59:42;;;;;;;30.73;26.40;;;9.60;98.30;;;;;;5121426;28;20417;-45
2022/03/16 03:02:10;;;;;;;35.93;29.20;;;9.70;98.30;;;;;;5120151;28;20754;-45
2022/03/16 03:04:36;;;;;;;31.80;26.57;;;9.70;98.20;;;;;;5121186;28;20533;-45
2022/03/16 03:07:01;;;;;;;34.50;28.10;;;9.70;98.20;;;;;;5120163;28;20773;-45
2022/03/16 03:09:27;;;;;;;31.93;26.93;;;9.70;98.20;;;;;;5121044;28;20566;-45
2022/03/16 03:11:53;;;;;;;34.23;27.97;;;9.60;98.30;;;;;;5119535;28;20566;-45
2022/03/16 03:14:19;;;;;;;34.63;28.40;;;9.70;98.30;;;;;;5121270;28;20330;-45
2022/03/16 03:16:46;;;;;;;34.43;27.63;;;9.60;98.40;;;;;;5119670;28;20716;-45
2022/03/16 03:19:12;;;;;;;32.30;27.13;;;9.60;98.40;;;;;;5121125;28;20225;-45
2022/03/16 03:21:38;;;;;;;34.27;26.50;;;9.60;98.40;;;;;;5119714;28;20422;-45
2022/03/16 03:24:04;;;;;;;35.50;28.63;;;9.60;98.40;;;;;;5121242;28;20208;-45
2022/03/16 03:26:29;;;;;;;32.00;26.33;;;9.60;98.40;;;;;;5119999;28;20908;-45
2022/03/16 03:28:55;;;;;;;34.60;27.13;;;9.60;98.40;;;;;;5121126;28;20500;-44
2022/03/16 03:31:21;;;;;;;33.53;27.47;;;9.60;98.30;;;;;;5119108;28;20182;-45
2022/03/16 03:33:46;;;;;;;32.73;26.40;;;9.60;98.30;;;;;;5121087;28;20316;-45
2022/03/16 03:36:14;;;;;;;34.37;27.20;;;9.60;98.30;;;;;;5119594;28;20614;-47
2022/03/16 03:38:40;;;;;;;33.67;27.13;;;9.60;98.30;;;;;;5121046;28;20263;-45
2022/03/16 03:41:05;;;;;;;33.20;27.50;;;9.60;98.40;;;;;;5119484;28;20833;-45
2022/03/16 03:43:31;;;;;;;37.80;28.07;;;9.60;98.50;;;;;;5120868;28;20192;-45
2022/03/16 03:45:56;;;;;;;33.20;26.17;;;9.60;98.50;;;;;;5119470;28;20255;-45
2022/03/16 03:48:22;;;;;;;33.70;26.43;;;9.50;98.50;;;;;;5120349;28;20173;-45
2022/03/16 03:50:48;;;;;;;34.30;27.07;;;9.50;98.60;;;;;;5120344;28;20224;-45
2022/03/16 03:53:14;;;;;;;36.53;28.07;;;9.50;98.60;;;;;;5119104;28;20591;-45
2022/03/16 03:55:39;;;;;;;35.53;29.53;;;9.60;98.60;;;;;;5119474;28;20270;-45
2022/03/16 03:58:05;;;;;;;33.13;27.00;;;9.60;98.60;;;;;;5117539;28;20469;-45
2022/03/16 04:00:31;;;;;;;37.83;29.30;;;9.60;98.60;;;;;;5120738;28;20184;-45
2022/03/16 04:02:56;;;;;;;32.57;27.27;;;9.60;98.60;;;;;;5119089;28;20184;-47
2022/03/16 04:05:22;;;;;;;36.90;29.63;;;9.60;98.80;;;;;;5119945;28;20251;-45
2022/03/16 04:07:50;;;;;;;37.13;28.13;;;9.60;98.50;;;;;;5119550;28;20200;-45
2022/03/16 04:10:17;;;;;;;34.80;28.90;;;9.60;98.50;;;;;;5120307;28;20184;-45
2022/03/16 04:12:43;;;;;;;36.50;30.73;;;9.60;98.60;;;;;;5118688;28;20421;-45
2022/03/16 04:15:09;;;;;;;33.37;29.30;;;9.60;98.60;;;;;;5120408;28;20418;-45
2022/03/16 04:17:34;;;;;;;37.23;28.73;;;9.60;98.60;;;;;;5118487;28;20429;-44
2022/03/16 04:20:00;;;;;;;35.33;29.60;;;9.60;98.60;;;;;;5120109;28;20422;-43
2022/03/16 04:22:27;;;;;;;38.47;27.67;;;9.60;98.60;;;;;;5100808;28;20316;-45
2022/03/16 04:24:53;;;;;;;32.23;26.90;;;9.60;98.50;;;;;;5100854;28;20300;-45
2022/03/16 04:27:20;;;;;;;34.90;27.40;;;9.60;98.50;;;;;;5117401;28;20418;-45
2022/03/16 04:29:46;;;;;;;34.70;27.50;;;9.60;98.50;;;;;;5118967;28;20441;-44
2022/03/16 04:32:12;;;;;;;34.23;27.13;;;9.60;98.50;;;;;;5117613;28;20422;-44
2022/03/16 04:34:37;;;;;;;29.63;25.50;;;9.60;98.40;;;;;;5119099;28;20433;-45
2022/03/16 04:37:03;;;;;;;32.63;27.13;;;9.60;98.30;;;;;;5118237;28;20168;-45
2022/03/16 04:39:29;;;;;;;29.47;24.00;;;9.60;98.30;;;;;;5119288;28;20197;-45
2022/03/16 04:41:54;;;;;;;32.80;26.80;;;9.60;98.30;;;;;;5118100;28;20417;-45
2022/03/16 04:44:20;;;;;;;34.60;27.50;;;9.60;98.30;;;;;;5119458;28;20297;-45
2022/03/16 04:46:45;;;;;;;33.17;26.47;;;9.60;98.30;;;;;;5117136;28;20263;-45
2022/03/16 04:49:11;;;;;;;36.13;27.57;;;9.60;98.20;;;;;;5117748;28;20168;-45
2022/03/16 04:51:37;;;;;;;33.00;25.27;;;9.60;98.30;;;;;;5116623;28;20172;-46
2022/03/16 04:54:03;;;;;;;32.57;26.30;;;9.60;98.30;;;;;;5117816;28;20182;-45
2022/03/16 04:56:29;;;;;;;30.23;23.87;;;9.60;98.30;;;;;;5116386;28;20432;-45
2022/03/16 04:58:54;;;;;;;30.97;25.47;;;9.50;98.20;;;;;;5115323;28;20513;-45
2022/03/16 05:01:20;;;;;;;32.40;25.37;;;9.50;98.20;;;;;;5116989;28;20565;-45
2022/03/16 05:03:46;;;;;;;33.00;25.47;;;9.50;98.20;;;;;;5119886;28;20200;-47
2022/03/16 05:06:12;;;;;;;31.37;25.17;;;9.50;98.20;;;;;;5121634;28;20222;-47
2022/03/16 05:08:37;;;;;;;29.30;23.13;;;9.50;98.20;;;;;;5120229;28;20426;-47
2022/03/16 05:11:04;;;;;;;30.53;25.37;;;9.50;98.20;;;;;;5121414;28;20180;-47
2022/03/16 05:13:30;;;;;;;31.67;26.43;;;9.50;98.20;;;;;;5120452;28;20516;-47
2022/03/16 05:15:56;;;;;;;31.80;26.13;;;9.40;98.10;;;;;;5122182;28;20437;-47
2022/03/16 05:18:26;;;;;;;32.07;25.47;;;9.40;98.10;;;;;;5120715;28;20434;-47
2022/03/16 05:20:51;;;;;;;29.70;24.83;;;9.40;98.10;;;;;;5121615;28;20869;-47
2022/03/16 05:23:17;;;;;;;31.67;26.80;;;9.40;98.00;;;;;;5119414;28;20433;-47
2022/03/16 05:25:43;;;;;;;33.20;26.60;;;9.40;98.10;;;;;;5121639;28;20276;-47
2022/03/16 05:28:08;;;;;;;32.07;28.23;;;9.40;98.30;;;;;;5119054;28;20187;-45
2022/03/16 05:30:34;;;;;;;31.90;25.93;;;9.30;98.40;;;;;;5121392;28;20183;-46
2022/03/16 05:33:01;;;;;;;29.90;26.33;;;9.30;98.50;;;;;;5120315;28;20185;-44
2022/03/16 05:35:27;;;;;;;32.00;27.10;;;9.30;98.60;;;;;;5121243;28;20208;-46
2022/03/16 05:37:53;;;;;;;33.70;27.60;;;9.30;98.70;;;;;;5121217;28;20429;-46
2022/03/16 05:40:19;;;;;;;33.30;25.67;;;9.30;98.70;;;;;;5101576;28;20418;-45
2022/03/16 05:42:45;;;;;;;33.17;27.07;;;9.30;98.80;;;;;;5119031;28;20437;-46
2022/03/16 05:45:10;;;;;;;31.17;25.70;;;9.30;98.80;;;;;;5119970;28;20883;-46
2022/03/16 05:47:36;;;;;;;34.57;27.73;;;9.30;98.90;;;;;;5119738;28;20182;-46
2022/03/16 05:50:03;;;;;;;32.37;25.27;;;9.30;98.90;;;;;;5119649;28;20418;-47
2022/03/16 05:52:29;;;;;;;33.97;27.57;;;9.30;99.00;;;;;;5119366;28;20456;-46
2022/03/16 05:54:56;;;;;;;31.00;26.70;;;9.30;99.00;;;;;;5120610;28;20850;-47
2022/03/16 05:57:22;;;;;;;35.70;28.33;;;9.30;99.00;;;;;;5117776;28;20437;-46
2022/03/16 05:59:48;;;;;;;28.50;24.73;;;9.30;99.00;;;;;;5119678;28;20432;-47
2022/03/16 06:02:15;;;;;;;34.23;27.23;;;9.30;99.00;;;;;;5118323;28;20689;-47
2022/03/16 06:04:41;;;;;;;34.37;28.20;;;9.30;99.00;;;;;;5083177;28;20470;-47
2022/03/16 06:07:07;;;;;;;36.17;29.40;;;9.40;99.00;;;;;;5098402;28;20437;-47
2022/03/16 06:09:34;;;;;;;37.60;29.27;;;9.40;98.90;;;;;;5117904;28;20421;-47
2022/03/16 06:12:02;;;;;;;35.93;29.93;;;9.40;98.90;;;;;;5116754;28;20512;-47
2022/03/16 06:14:28;;;;;;;39.33;31.30;;;9.50;98.90;;;;;;5117880;28;20414;-48
2022/03/16 06:16:54;;;;;;;35.10;29.40;;;9.50;98.80;;;;;;5116259;28;20450;-47
2022/03/16 06:19:20;;;;;;;37.67;31.07;;;9.60;98.90;;;;;;5117983;28;20414;-47
2022/03/16 06:21:46;;;;;;;39.27;32.90;;;9.60;98.80;;;;;;5102339;28;20197;-47
2022/03/16 06:24:11;;;;;;;40.57;33.67;;;9.60;98.70;;;;;;5121468;28;20610;-47
2022/03/16 06:26:38;;;;;;;40.10;33.10;;;9.70;98.70;;;;;;5119955;28;20434;-46
2022/03/16 06:29:04;;;;;;;35.80;31.00;;;9.70;98.70;;;;;;5121701;28;20731;-46
2022/03/16 06:31:29;;;;;;;39.50;33.57;;;9.70;98.70;;;;;;5104637;27;20406;-47
2022/03/16 06:33:55;;;;;;;39.03;32.10;;;9.80;98.70;;;;;;5121261;27;20246;-47
2022/03/16 06:36:21;;;;;;;43.03;34.60;;;9.80;98.70;;;;;;5142228;27;20175;-50
2022/03/16 06:38:46;;;;;;;40.83;33.70;;;9.80;98.70;;;;;;5141096;27;20191;-45
2022/03/16 06:41:12;;;;;;;42.50;34.17;;;9.90;98.70;;;;;;5141926;27;20179;-46
2022/03/16 06:43:38;;;;;;;42.27;34.10;;;9.90;98.70;;;;;;5121388;27;20228;-46
2022/03/16 06:46:03;;;;;;;47.27;35.50;;;9.90;98.60;;;;;;5137675;27;20180;-46
2022/03/16 06:48:29;;;;;;;46.13;35.67;;;9.90;98.60;;;;;;5140405;27;20541;-46
2022/03/16 06:50:55;;;;;;;49.57;39.57;;;10.00;98.00;;;;;;5140629;27;20199;-45
2022/03/16 06:53:20;;;;;;;42.90;36.27;;;10.00;98.00;;;;;;5140528;27;20184;-46
2022/03/16 06:55:46;;;;;;;47.20;38.50;;;10.10;98.10;;;;;;5142100;27;20474;-46
2022/03/16 06:58:12;;;;;;;48.87;36.80;;;10.10;98.00;;;;;;5140739;27;20180;-46
2022/03/16 07:00:37;;;;;;;45.70;35.80;;;10.10;98.10;;;;;;5143355;27;20537;-45
2022/03/16 07:03:05;;;;;;;47.07;37.27;;;10.20;98.10;;;;;;5141961;27;20192;-46
2022/03/16 07:05:32;;;;;;;46.77;37.13;;;10.20;98.40;;;;;;5124723;27;20470;-47
2022/03/16 07:08:00;;;;;;;47.67;36.40;;;10.30;98.00;;;;;;5142988;27;20565;-46
2022/03/16 07:10:27;;;;;;;45.20;37.13;;;10.40;98.00;;;;;;5143456;27;20401;-46
2022/03/16 07:12:52;;;;;;;48.00;36.37;;;10.50;98.00;;;;;;5140934;27;20428;-46
2022/03/16 07:15:18;;;;;;;44.50;34.80;;;10.50;97.90;;;;;;5143921;27;20428;-46
2022/03/16 07:17:44;;;;;;;44.77;35.40;;;10.70;97.80;;;;;;5142483;27;20168;-46
2022/03/16 07:20:10;;;;;;;44.47;36.73;;;10.70;97.70;;;;;;5141634;27;20195;-46
2022/03/16 07:22:36;;;;;;;45.00;33.70;;;10.80;97.60;;;;;;5142431;27;20172;-48
2022/03/16 07:25:09;;;;;;;42.90;34.53;;;10.80;97.50;;;;;;5125644;27;20785;-46
2022/03/16 07:27:38;;;;;;;45.83;33.43;;;10.90;97.50;;;;;;5142400;27;20737;-46
2022/03/16 07:30:09;;;;;;;44.87;34.20;;;10.90;97.40;;;;;;5126346;27;20408;-48
2022/03/16 07:32:39;;;;;;;46.67;35.07;;;11.00;97.40;;;;;;5143699;27;20413;-46
2022/03/16 07:35:09;;;;;;;43.50;34.67;;;11.00;97.40;;;;;;5125679;27;20461;-46
2022/03/16 07:37:36;;;;;;;16.07;12.47;;;11.00;97.30;;;;;;5142420;27;20488;-40
2022/03/16 07:40:02;;;;;;;13.87;10.80;;;11.40;97.80;;;;;;5141724;27;20695;-39
2022/03/16 07:42:30;;;;;;;19.30;14.77;;;11.90;97.30;;;;;;5137783;27;20444;-40
2022/03/16 07:44:56;;;;;;;15.50;13.23;;;12.20;96.90;;;;;;5141221;27;20630;-40
2022/03/16 07:47:22;;;;;;;17.33;13.80;;;12.60;96.30;;;;;;5139806;27;20505;-40
2022/03/16 07:49:49;;;;;;;21.83;15.13;;;13.00;95.50;;;;;;5139888;27;20417;-39
2022/03/16 07:52:14;;;;;;;18.43;16.47;;;13.30;94.60;;;;;;5120577;27;20421;-40
2022/03/16 07:54:40;;;;;;;26.63;21.30;;;13.60;93.90;;;;;;5139311;27;20549;-40
2022/03/16 07:57:06;;;;;;;26.53;23.70;;;13.60;93.10;;;;;;5137830;27;20172;-41
2022/03/16 07:59:31;;;;;;;31.00;26.20;;;13.60;92.50;;;;;;5138249;27;20272;-40
2022/03/16 08:01:57;;;;;;;34.90;28.97;;;13.50;92.40;;;;;;5137450;27;20561;-39
2022/03/16 08:04:22;;;;;;;32.57;29.00;;;13.30;92.40;;;;;;5138817;27;20225;-39
2022/03/16 08:06:48;;;;;;;32.80;29.00;;;13.20;92.70;;;;;;5135376;27;20167;-39
2022/03/16 08:09:14;;;;;;;33.17;27.17;;;13.10;92.90;;;;;;5137424;27;20176;-39
2022/03/16 08:11:40;;;;;;;33.27;28.27;;;13.00;93.10;;;;;;5136187;27;20420;-42
2022/03/16 08:14:06;;;;;;;33.30;27.97;;;13.00;93.30;;;;;;5138905;27;20211;-39
2022/03/16 08:16:31;;;;;;;36.87;29.40;;;13.00;93.40;;;;;;5136836;27;20168;-42
2022/03/16 08:18:57;;;;;;;34.13;28.67;;;13.00;93.50;;;;;;5135088;27;20431;-43
2022/03/16 08:21:23;;;;;;;32.87;27.77;;;13.00;93.50;;;;;;5137416;27;20542;-39
2022/03/16 08:23:49;;;;;;;35.37;29.27;;;13.00;93.40;;;;;;5135588;27;20437;-39
2022/03/16 08:26:16;;;;;;;37.67;30.40;;;13.10;93.50;;;;;;5137025;27;20172;-40
2022/03/16 08:28:42;;;;;;;34.80;28.73;;;13.10;93.50;;;;;;5116896;27;20425;-42
2022/03/16 08:31:08;;;;;;;33.30;29.40;;;13.10;93.50;;;;;;5138149;27;20421;-41
2022/03/16 08:33:34;;;;;;;33.97;29.50;;;13.10;93.50;;;;;;5136357;27;20839;-41
2022/03/16 08:36:01;;;;;;;35.30;29.50;;;13.10;93.40;;;;;;5136468;27;20437;-40
2022/03/16 08:38:30;;;;;;;35.80;31.90;;;13.10;93.40;;;;;;5136195;27;20425;-41
2022/03/16 08:40:55;;;;;;;30.87;27.00;;;13.10;93.30;;;;;;5137300;27;20416;-40
2022/03/16 08:43:21;;;;;;;31.87;28.40;;;13.10;93.30;;;;;;5135842;27;20424;-40
2022/03/16 08:45:47;;;;;;;32.67;28.43;;;13.20;93.30;;;;;;5138511;27;20625;-43
2022/03/16 08:48:14;;;;;;;34.60;29.40;;;13.20;93.30;;;;;;5136244;27;20568;-41
2022/03/16 08:50:40;;;;;;;34.83;29.43;;;13.20;93.20;;;;;;5138963;27;20176;-42
2022/03/16 08:53:06;;;;;;;38.73;31.90;;;13.20;93.00;;;;;;5138379;27;20417;-40
2022/03/16 08:55:32;;;;;;;41.13;32.33;;;13.20;93.30;;;;;;5138405;27;20480;-40
2022/03/16 08:57:58;;;;;;;38.43;31.40;;;13.20;93.00;;;;;;5136963;27;20200;-41
2022/03/16 09:00:23;;;;;;;37.77;31.33;;;13.20;93.00;;;;;;5138580;27;20174;-41
2022/03/16 09:02:49;;;;;;;38.17;31.17;;;13.20;93.00;;;;;;5137115;27;20623;-42
2022/03/16 09:05:17;;;;;;;36.50;30.53;;;13.20;93.00;;;;;;5138214;27;20207;-40
2022/03/16 09:07:43;;;;;;;39.33;31.90;;;13.30;93.10;;;;;;5138833;27;20211;-42
2022/03/16 09:10:09;;;;;;;39.40;30.90;;;13.30;93.00;;;;;;5136005;27;20413;-42
2022/03/16 09:12:36;;;;;;;38.17;30.17;;;13.40;93.00;;;;;;5138992;27;20420;-41
2022/03/16 09:15:03;;;;;;;37.67;31.83;;;13.40;92.80;;;;;;5139073;27;20437;-41
2022/03/16 09:17:30;;;;;;;37.03;29.07;;;13.50;92.60;;;;;;5138554;27;20800;-41
2022/03/16 09:19:57;;;;;;;33.97;30.37;;;13.60;92.50;;;;;;5139066;27;20473;-40
2022/03/16 09:22:23;;;;;;;36.10;29.33;;;13.70;92.30;;;;;;5135755;27;20463;-41
2022/03/16 09:24:48;;;;;;;36.20;29.80;;;13.80;92.20;;;;;;5136489;27;20460;-40
2022/03/16 09:27:16;;;;;;;36.60;28.87;;;13.90;92.10;;;;;;5134959;27;20451;-40
2022/03/16 09:29:46;;;;;;;33.77;28.57;;;13.90;91.90;;;;;;5137612;27;20488;-44
2022/03/16 09:32:13;;;;;;;34.33;28.87;;;14.00;91.80;;;;;;5116751;27;20424;-40
2022/03/16 09:34:40;;;;;;;28.80;25.03;;;14.10;91.70;;;;;;5138518;27;20427;-41
2022/03/16 09:37:06;;;;;;;37.43;29.30;;;14.10;91.50;;;;;;5136844;27;20420;-40
2022/03/16 09:39:32;;;;;;;33.53;29.70;;;14.10;91.30;;;;;;5138837;27;20417;-41
2022/03/16 09:41:59;;;;;;;32.30;27.47;;;14.20;91.20;;;;;;5136647;27;20527;-41
2022/03/16 09:44:27;;;;;;;32.57;28.00;;;14.20;91.10;;;;;;5137624;27;20906;-41
2022/03/16 09:46:54;;;;;;;32.77;28.30;;;14.20;91.00;;;;;;5118548;27;20532;-40
2022/03/16 09:49:20;;;;;;;29.73;26.40;;;14.20;90.90;;;;;;5138096;27;20397;-42
2022/03/16 09:51:45;;;;;;;31.40;27.80;;;14.20;90.80;;;;;;5117695;28;20520;-43
2022/03/16 09:54:11;;;;;;;28.83;25.60;;;14.30;90.70;;;;;;5136800;27;20239;-41
2022/03/16 09:56:36;;;;;;;29.20;26.07;;;14.30;90.60;;;;;;5134690;27;20744;-41
2022/03/16 09:59:02;;;;;;;29.20;25.23;;;14.30;90.50;;;;;;5136500;27;20172;-41
2022/03/16 10:01:28;;;;;;;26.73;23.60;;;14.40;90.40;;;;;;5135289;27;20211;-41
2022/03/16 10:03:59;;;;;;;27.27;24.40;;;14.50;90.40;;;;;;5135494;28;20417;-42
2022/03/16 10:06:26;;;;;;;26.87;23.97;;;14.60;90.20;;;;;;5118114;28;20440;-42
2022/03/16 10:14:19;;;;;;;27.40;24.60;;;14.80;89.20;;;;;;5115817;28;20457;-41
2022/03/16 10:19:49;;;;;;;28.97;25.83;;;14.90;88.30;;;;;;5102037;28;20661;-41
2022/03/16 10:22:31;;;;;;;28.00;25.00;;;15.10;87.80;;;;;;5116124;28;20429;-43
2022/03/16 10:25:00;;;;;;;25.57;22.90;;;15.10;87.70;;;;;;5118444;28;20716;-40
2022/03/16 10:27:26;;;;;;;26.23;23.30;;;15.30;87.60;;;;;;5116726;28;20446;-42
2022/03/16 10:29:52;;;;;;;24.73;22.03;;;15.50;87.50;;;;;;5099554;28;20506;-41
2022/03/16 10:32:21;;;;;;;22.80;20.47;;;15.60;87.00;;;;;;5115941;28;20439;-41
2022/03/16 10:34:55;;;;;;;25.47;22.87;;;15.80;86.30;;;;;;5117353;28;20183;-42
2022/03/16 10:37:22;;;;;;;25.10;22.40;;;16.00;85.60;;;;;;5116481;28;20527;-41
2022/03/16 10:39:50;;;;;;;24.23;21.83;;;16.10;84.40;;;;;;5117937;28;20507;-41
2022/03/16 10:48:25;;;;;;;22.87;20.57;;;16.70;81.80;;;;;;5114441;28;20776;-41
2022/03/16 10:50:57;;;;;;;22.27;20.07;;;17.00;80.80;;;;;;5095498;28;20406;-40
2022/03/16 10:53:30;;;;;;;22.40;20.20;;;17.30;79.90;;;;;;5097942;28;20684;-43
2022/03/16 10:55:59;;;;;;;21.63;19.40;;;17.50;78.90;;;;;;5114054;28;20485;-42
2022/03/16 10:58:25;;;;;;;20.63;18.43;;;18.10;77.60;;;;;;5117004;28;20417;-41
2022/03/16 11:00:52;;;;;;;21.17;19.17;;;18.50;75.90;;;;;;5097411;28;20722;-40
2022/03/16 11:03:24;;;;;;;19.00;17.17;;;19.00;75.00;;;;;;5116701;28;20882;-40
2022/03/16 11:05:50;;;;;;;19.40;17.60;;;19.70;72.90;;;;;;5116366;28;20485;-42
2022/03/16 11:08:19;;;;;;;19.97;18.07;;;20.20;70.40;;;;;;5121146;28;21007;-41
2022/03/16 11:10:45;;;;;;;20.43;18.53;;;20.70;67.90;;;;;;5120399;28;20446;-42
2022/03/16 11:13:30;;;;;;;19.30;17.50;;;20.90;66.50;;;;;;5102760;28;20901;-42
2022/03/16 11:15:58;;;;;;;19.17;17.20;;;21.00;64.70;;;;;;5103325;28;20524;-41
2022/03/16 11:18:24;;;;;;;17.13;15.43;;;21.10;63.20;;;;;;5120535;28;20428;-40
2022/03/16 11:20:52;;;;;;;17.63;15.93;;;21.10;62.80;;;;;;5119300;28;20413;-40
2022/03/16 11:26:25;;;;;;;17.80;15.70;;;20.80;61.90;;;;;;5118604;28;20474;-40
2022/03/16 11:28:51;;;;;;;17.50;15.87;;;20.60;61.70;;;;;;5118985;28;20796;-40
2022/03/16 11:31:23;;;;;;;16.03;14.53;;;20.30;61.70;;;;;;5118244;28;20425;-42
2022/03/16 11:33:50;;;;;;;17.60;15.90;;;20.10;62.90;;;;;;5119089;28;20611;-41
2022/03/16 11:36:34;;;;;;;17.20;15.50;;;19.80;62.20;;;;;;5117119;28;20443;-42
2022/03/16 11:39:02;;;;;;;17.10;15.50;;;19.50;62.90;;;;;;5118911;28;20406;-42
2022/03/16 11:41:30;;;;;;;18.07;16.30;;;19.50;63.40;;;;;;5099600;27;20425;-39
2022/03/16 11:44:21;;;;;;;19.27;17.50;;;19.60;63.80;;;;;;5121740;27;20449;-41
2022/03/16 11:46:47;;;;;;;16.90;15.30;;;19.90;63.20;;;;;;5137858;27;20441;-42
2022/03/16 11:49:13;;;;;;;16.93;15.10;;;20.40;62.50;;;;;;5122403;27;20503;-41
2022/03/16 11:51:59;;;;;;;17.37;15.77;;;20.60;61.40;;;;;;5104313;27;20209;-43
2022/03/16 11:54:52;;;;;;;17.80;16.00;;;20.80;60.40;;;;;;5108007;28;20308;-41
2022/03/16 11:57:53;;;;;;;17.10;15.60;;;20.70;60.00;;;;;;5114744;28;20431;-41
2022/03/16 12:00:22;;;;;;;18.77;15.97;;;20.70;59.50;;;;;;5101631;28;20526;-40
2022/03/16 12:02:59;;;;;;;18.43;16.63;;;20.70;59.40;;;;;;5116770;28;20771;-43
2022/03/16 12:05:27;;;;;;;15.67;14.27;;;20.50;59.10;;;;;;5117246;27;20479;-41
2022/03/16 12:08:12;;;;;;;17.90;16.20;;;20.40;59.10;;;;;;5117202;28;20433;-41
2022/03/16 12:12:50;;;;;;;17.23;15.53;;;20.30;59.20;;;;;;5116524;28;20701;-41
2022/03/16 12:13:42;;;;;;;16.40;14.97;;;20.30;59.30;;;;;;5116179;28;20418;-42
2022/03/16 12:16:07;;;;;;;18.73;16.87;;;20.20;59.20;;;;;;5129671;27;20951;-40
2022/03/16 12:18:39;;;;;;;17.53;15.70;;;20.10;59.20;;;;;;5135115;27;20482;-41
2022/03/16 12:21:07;;;;;;;16.30;14.80;;;20.00;59.30;;;;;;5134342;27;20294;-40
2022/03/16 12:23:42;;;;;;;18.30;16.40;;;19.80;59.30;;;;;;5137574;27;20415;-43
2022/03/16 12:26:08;;;;;;;17.77;16.20;;;19.70;59.30;;;;;;5119672;27;20447;-42
2022/03/16 12:31:19;;;;;;;15.50;14.20;;;19.60;59.60;;;;;;5134533;27;20195;-40
2022/03/16 12:33:55;;;;;;;15.90;14.40;;;19.50;59.80;;;;;;5130654;27;20472;-42
2022/03/16 12:36:32;;;;;;;15.03;13.73;;;19.50;59.90;;;;;;5134661;27;20416;-41
2022/03/16 12:39:08;;;;;;;16.43;14.93;;;19.40;59.80;;;;;;5135995;27;20471;-41
2022/03/16 12:44:18;;;;;;;17.30;15.47;;;19.40;59.90;;;;;;5133399;27;20726;-41
2022/03/16 12:46:47;;;;;;;15.77;14.33;;;19.40;59.80;;;;;;5130541;27;20734;-44
2022/03/16 12:49:15;;;;;;;15.10;13.57;;;19.40;60.00;;;;;;5133457;27;20417;-41
2022/03/16 12:51:49;;;;;;;14.73;13.47;;;19.50;60.00;;;;;;5133239;27;20425;-40
2022/03/16 12:54:36;;;;;;;17.27;15.60;;;19.60;59.80;;;;;;5098146;27;20943;-41